Pride Of Bruges — PGJW — position and weather

sailwx.info

Track history (hours):
 
Tides and Currents Weather Stations Pressure Air Temp Water Temp Dewpoint Dewpoint Depression Visibility Wind Speed Wind Dir Waves Ship Positions

Pride Of Bruges

Operator: P&O Ferries

Last reported at 2017-Feb-23 01:33 UTC. Time now 2017-Feb-23 02:32 UTC.
Position N 53°02' E 001°28'.

Length 180 m; draft 5.8 m.

Type: Ship. MMSI: 244387000.

Date/timePositionNaut miles runAvg speedWind from/ knotsBaromVisibWave heightAir tempDewpointWater temp
2017-Feb-23 01:33N 53°02' E 001°28'1716.7
2017-Feb-23 00:33N 52°50' E 001°46'7016.5
2017-Feb-22 20:20N 51°49' E 002°42'1316.1
2017-Feb-22 19:33N 51°36' E 002°46'1615.7
2017-Feb-22 18:33N 51°25' E 003°03'7 6.7
2017-Feb-22 17:33N 51°20' E 003°11'0 0.0
2017-Feb-22 16:32N 51°20' E 003°11'0 0.0
2017-Feb-22 15:32N 51°20' E 003°11'0 0.0
2017-Feb-22 14:31N 51°20' E 003°11'0 0.0
2017-Feb-22 13:31N 51°20' E 003°11'0 0.0
2017-Feb-22 12:33N 51°20' E 003°11'0 0.0
2017-Feb-22 11:33N 51°20' E 003°11'0 0.0
2017-Feb-22 10:33N 51°20' E 003°11'0 0.0
2017-Feb-22 09:32N 51°20' E 003°11'0 0.0
2017-Feb-22 08:32N 51°20' E 003°11'1 1.4
2017-Feb-22 07:33N 51°22' E 003°12'1515.3
2017-Feb-22 06:34N 51°31' E 002°52'7915.9
2017-Feb-22 01:33N 52°43' E 001°58'1716.6
2017-Feb-22 00:34N 52°53' E 001°36'1716.5
2017-Feb-21 23:34N 53°01' E 001°12'4715.8
2017-Feb-21 20:33N 53°33' E 000°13'1515.0
2017-Feb-21 19:33N 53°38' W 000°10'7 7.3
2017-Feb-21 18:33N 53°44' W 000°16'0 0.1
2017-Feb-21 17:30N 53°45' W 000°16'0 0.0
2017-Feb-21 16:32N 53°45' W 000°16'0 0.0
2017-Feb-21 15:32N 53°45' W 000°16'0 0.0
2017-Feb-21 14:28N 53°45' W 000°16'0 0.0
2017-Feb-21 13:31N 53°45' W 000°16'0 0.0
2017-Feb-21 12:33N 53°45' W 000°16'0 0.0
2017-Feb-21 11:33N 53°45' W 000°16'0 0.0
2017-Feb-21 10:33N 53°45' W 000°16'0 0.0
2017-Feb-21 09:32N 53°45' W 000°16'0 0.0
2017-Feb-21 08:32N 53°45' W 000°16'0 0.3
2017-Feb-21 07:33N 53°44' W 000°17'1010.4
2017-Feb-21 06:33N 53°37' W 000°05'1413.4
2017-Feb-21 05:33N 53°32' E 000°17'3413.5
2017-Feb-21 03:03N 53°15' E 001°05'714.0
2017-Feb-21 02:33N 53°10' E 001°13'1414.0
2017-Feb-21 01:33N 53°00' E 001°29'1514.8
2017-Feb-21 00:33N 52°49' E 001°46'7416.7
2017-Feb-20 20:09N 51°44' E 002°43'1016.1
2017-Feb-20 19:33N 51°35' E 002°47'1515.2
2017-Feb-20 18:33N 51°24' E 003°04'6 5.7
2017-Feb-20 17:31N 51°20' E 003°11'0 0.0
2017-Feb-20 16:33N 51°20' E 003°11'0 0.0
2017-Feb-20 15:33N 51°20' E 003°11'0 0.0
2017-Feb-20 14:33N 51°20' E 003°11'0 0.0
2017-Feb-20 13:32N 51°20' E 003°11'0 0.0
2017-Feb-20 12:32N 51°20' E 003°11'0 0.0
2017-Feb-20 11:31N 51°20' E 003°11'0 0.0
2017-Feb-20 10:31N 51°20' E 003°11'0 0.0
2017-Feb-20 09:33N 51°20' E 003°11'0 0.0
2017-Feb-20 08:33N 51°20' E 003°11'3 2.7
2017-Feb-20 07:33N 51°23' E 003°10'1313.3
2017-Feb-20 06:34N 51°31' E 002°53'4615.3
2017-Feb-20 03:33N 52°13' E 002°22'3316.5
2017-Feb-20 01:33N 52°42' E 001°57'1616.6
2017-Feb-20 00:33N 52°53' E 001°36'1616.3
2017-Feb-19 23:33N 53°01' E 001°13'4515.1
2017-Feb-19 20:33N 53°31' E 000°16'1514.7
2017-Feb-19 19:33N 53°37' W 000°06'10 9.6
2017-Feb-19 18:33N 53°44' W 000°16'0 0.1
2017-Feb-19 17:34N 53°45' W 000°16'0 0.0
2017-Feb-19 16:33N 53°45' W 000°16'0 0.0
2017-Feb-19 15:33N 53°45' W 000°16'0 0.0
2017-Feb-19 14:20N 53°45' W 000°16'0 0.0
2017-Feb-19 13:20N 53°45' W 000°16'0 0.0
2017-Feb-19 12:25N 53°45' W 000°16'0 0.0
2017-Feb-19 11:31N 53°45' W 000°16'0 0.0
2017-Feb-19 10:30N 53°45' W 000°16'0 0.0
2017-Feb-19 09:21N 53°45' W 000°16'0 0.1
2017-Feb-19 08:33N 53°44' W 000°16'8 7.7
2017-Feb-19 07:33N 53°38' W 000°09'1414.0
2017-Feb-19 06:34N 53°33' E 000°13'3812.6
2017-Feb-19 03:30N 53°06' E 000°58'1313.5
2017-Feb-19 02:33N 52°60' E 001°17'1312.9
2017-Feb-19 01:33N 52°53' E 001°35'1313.3
2017-Feb-19 00:33N 52°47' E 001°55'3014.0
2017-Feb-18 22:25N 52°20' E 002°17'1515.8
2017-Feb-18 21:29N 52°07' E 002°27'1716.6
2017-Feb-18 20:27N 51°51' E 002°38'1516.4
2017-Feb-18 19:33N 51°37' E 002°45'1615.6
2017-Feb-18 18:34N 51°25' E 003°01'8 8.2
2017-Feb-18 17:33N 51°20' E 003°11'0 0.0
2017-Feb-18 16:33N 51°20' E 003°11'0 0.0
2017-Feb-18 15:33N 51°20' E 003°11'0 0.0
2017-Feb-18 14:33N 51°20' E 003°11'0 0.0
2017-Feb-18 13:33N 51°20' E 003°11'0 0.0
2017-Feb-18 12:33N 51°20' E 003°11'0 0.0
2017-Feb-18 11:33N 51°20' E 003°11'0 0.0
2017-Feb-18 10:33N 51°20' E 003°11'0 0.0
2017-Feb-18 09:33N 51°20' E 003°11'0 0.0
2017-Feb-18 08:33N 51°20' E 003°11'8 7.6
2017-Feb-18 07:33N 51°25' E 003°02'1514.6
2017-Feb-18 06:33N 51°36' E 002°46'1613.9
2017-Feb-18 05:25N 51°50' E 002°36'1314.9
2017-Feb-18 04:33N 52°03' E 002°31'1615.3
2017-Feb-18 03:32N 52°17' E 002°20'1615.8
2017-Feb-18 02:33N 52°30' E 002°07'1616.1
2017-Feb-18 01:33N 52°44' E 001°54'1716.9
2017-Feb-18 00:33N 52°54' E 001°32'1716.5
2017-Feb-17 23:33N 53°02' E 001°07'3115.6
2017-Feb-17 21:34N 53°23' E 000°30'1514.7
2017-Feb-17 20:33N 53°32' E 000°10'1413.8
2017-Feb-17 19:33N 53°39' W 000°10'7 6.7
2017-Feb-17 18:34N 53°44' W 000°16'0 0.1
2017-Feb-17 17:34N 53°45' W 000°16'0 0.0
2017-Feb-17 16:33N 53°45' W 000°16'0 0.0
2017-Feb-17 15:33N 53°45' W 000°16'0 0.0
2017-Feb-17 14:26N 53°45' W 000°16'0 0.0
2017-Feb-17 13:32N 53°45' W 000°16'0 0.0
2017-Feb-17 12:25N 53°45' W 000°16'0 0.0
2017-Feb-17 11:31N 53°45' W 000°16'0 0.0
2017-Feb-17 10:30N 53°45' W 000°16'0 0.0
2017-Feb-17 09:33N 53°45' W 000°16'0 0.0
2017-Feb-17 08:33N 53°45' W 000°16'0 0.1
2017-Feb-17 07:33N 53°44' W 000°16'10 9.6
2017-Feb-17 06:34N 53°37' W 000°06'1616.0
2017-Feb-17 05:33N 53°31' E 000°19'3316.5
2017-Feb-17 03:33N 53°07' E 000°58'1616.2
2017-Feb-17 02:33N 52°59' E 001°21'1515.3
2017-Feb-17 01:33N 52°52' E 001°43'1514.1
2017-Feb-17 00:28N 52°42' E 002°02'4314.6
2017-Feb-16 21:33N 52°03' E 002°31'1616.0
2017-Feb-16 20:34N 51°49' E 002°43'1616.2
2017-Feb-16 19:33N 51°33' E 002°50'1515.3
2017-Feb-16 18:34N 51°24' E 003°09'4 3.7
2017-Feb-16 17:33N 51°20' E 003°11'0 0.0
2017-Feb-16 16:33N 51°20' E 003°11'0 0.0
2017-Feb-16 15:33N 51°20' E 003°11'0 0.0
2017-Feb-16 14:33N 51°20' E 003°11'0 0.0
2017-Feb-16 13:33N 51°20' E 003°11'0 0.0
2017-Feb-16 12:33N 51°20' E 003°11'0 0.0
2017-Feb-16 11:33N 51°20' E 003°11'0 0.0
2017-Feb-16 10:33N 51°20' E 003°11'0 0.0
2017-Feb-16 09:33N 51°20' E 003°11'0 0.0
2017-Feb-16 08:33N 51°20' E 003°11'1 1.5
2017-Feb-16 07:34N 51°22' E 003°11'1514.7
2017-Feb-16 06:34N 51°31' E 002°53'1514.0
2017-Feb-16 05:31N 51°44' E 002°42'2814.3
2017-Feb-16 03:33N 52°10' E 002°25'3115.5
2017-Feb-16 01:32N 52°38' E 002°01'1616.3
2017-Feb-16 00:33N 52°49' E 001°43'1616.5
2017-Feb-15 23:34N 52°58' E 001°21'5117.0
2017-Feb-15 20:33N 53°31' E 000°16'1414.5
2017-Feb-15 19:33N 53°37' W 000°06'9 9.3
2017-Feb-15 18:33N 53°44' W 000°16'0 0.1
2017-Feb-15 17:33N 53°45' W 000°16'0 0.0
2017-Feb-15 16:33N 53°45' W 000°16'0 0.0
2017-Feb-15 15:34N 53°45' W 000°16'0 0.0
2017-Feb-15 14:34N 53°45' W 000°16'0 0.0
2017-Feb-15 13:34N 53°45' W 000°16'0 0.0
2017-Feb-15 12:33N 53°45' W 000°16'0 0.0
2017-Feb-15 11:33N 53°45' W 000°16'0 0.0
2017-Feb-15 10:34N 53°45' W 000°16'0 0.0
2017-Feb-15 09:34N 53°45' W 000°16'0 0.0
2017-Feb-15 08:33N 53°45' W 000°16'0 0.3
2017-Feb-15 07:33N 53°44' W 000°17'1615.8
2017-Feb-15 06:33N 53°35' E 000°04'4213.9
2017-Feb-15 03:33N 53°16' E 001°07'1616.6
2017-Feb-15 02:34N 53°04' E 001°25'1716.6
2017-Feb-15 01:34N 52°52' E 001°44'1514.6
2017-Feb-15 00:33N 52°41' E 002°01'7214.4
2017-Feb-14 19:33N 51°35' E 002°48'1615.7
2017-Feb-14 18:34N 51°24' E 003°06'5 4.9
2017-Feb-14 17:31N 51°20' E 003°11'0 0.0
2017-Feb-14 16:33N 51°20' E 003°11'0 0.0
2017-Feb-14 15:33N 51°20' E 003°11'0 0.0
2017-Feb-14 14:32N 51°20' E 003°11'0 0.0
2017-Feb-14 13:32N 51°20' E 003°11'0 0.0
2017-Feb-14 12:32N 51°20' E 003°11'0 0.0
2017-Feb-14 11:31N 51°20' E 003°11'0 0.0
2017-Feb-14 10:28N 51°20' E 003°11'0 0.0
2017-Feb-14 09:33N 51°20' E 003°11'0 0.0
2017-Feb-14 08:33N 51°20' E 003°11'6 5.7
2017-Feb-14 07:33N 51°24' E 003°05'1615.7
2017-Feb-14 06:33N 51°35' E 002°47'3815.5
2017-Feb-14 04:06N 52°11' E 002°23'915.0
2017-Feb-14 03:29N 52°19' E 002°16'2915.0
2017-Feb-14 01:33N 52°44' E 001°55'1615.7
2017-Feb-14 00:33N 52°54' E 001°34'1615.8
2017-Feb-13 23:33N 53°01' E 001°10'4715.7
2017-Feb-13 20:33N 53°33' E 000°12'1312.5
2017-Feb-13 19:34N 53°38' W 000°07'9 8.8
2017-Feb-13 18:33N 53°44' W 000°16'0 0.1
2017-Feb-13 17:29N 53°45' W 000°16'0 0.0
2017-Feb-13 16:32N 53°45' W 000°16'0 0.0
2017-Feb-13 15:32N 53°45' W 000°16'0 0.0
2017-Feb-13 14:31N 53°45' W 000°16'0 0.0
2017-Feb-13 13:28N 53°45' W 000°16'0 0.0
2017-Feb-13 12:33N 53°45' W 000°16'0 0.0
2017-Feb-13 11:27N 53°45' W 000°16'0 0.0
2017-Feb-13 10:32N 53°45' W 000°16'0 0.0
2017-Feb-13 09:32N 53°45' W 000°16'0 0.0
2017-Feb-13 08:33N 53°45' W 000°16'0 0.4
2017-Feb-13 07:33N 53°44' W 000°16'1615.9
2017-Feb-13 06:33N 53°34' E 000°05'4314.3
2017-Feb-13 03:34N 53°15' E 001°08'1616.3
2017-Feb-13 02:34N 53°02' E 001°27'  
Track history (hours):
 
Tides and Currents Weather Stations Pressure Air Temp Water Temp Dewpoint Dewpoint Depression Visibility Wind Speed Wind Dir Waves Ship Positions

Pride Of Bruges

Operator: P&O Ferries

Last reported at 2017-Feb-23 01:33 UTC. Time now 2017-Feb-23 02:32 UTC.
Position N 53°02' E 001°28'.

Length 180 m; draft 5.8 m.

Type: Ship. MMSI: 244387000.

Date/timePositionNaut miles runAvg speedWind from/ knotsBaromVisibWave heightAir tempDewpointWater temp
2017-Feb-23 01:33N 53°02' E 001°28'1716.7
2017-Feb-23 00:33N 52°50' E 001°46'7016.5
2017-Feb-22 20:20N 51°49' E 002°42'1316.1
2017-Feb-22 19:33N 51°36' E 002°46'1615.7
2017-Feb-22 18:33N 51°25' E 003°03'7 6.7
2017-Feb-22 17:33N 51°20' E 003°11'0 0.0
2017-Feb-22 16:32N 51°20' E 003°11'0 0.0
2017-Feb-22 15:32N 51°20' E 003°11'0 0.0
2017-Feb-22 14:31N 51°20' E 003°11'0 0.0
2017-Feb-22 13:31N 51°20' E 003°11'0 0.0
2017-Feb-22 12:33N 51°20' E 003°11'0 0.0
2017-Feb-22 11:33N 51°20' E 003°11'0 0.0
2017-Feb-22 10:33N 51°20' E 003°11'0 0.0
2017-Feb-22 09:32N 51°20' E 003°11'0 0.0
2017-Feb-22 08:32N 51°20' E 003°11'1 1.4
2017-Feb-22 07:33N 51°22' E 003°12'1515.3
2017-Feb-22 06:34N 51°31' E 002°52'7915.9
2017-Feb-22 01:33N 52°43' E 001°58'1716.6
2017-Feb-22 00:34N 52°53' E 001°36'1716.5
2017-Feb-21 23:34N 53°01' E 001°12'4715.8
2017-Feb-21 20:33N 53°33' E 000°13'1515.0
2017-Feb-21 19:33N 53°38' W 000°10'7 7.3
2017-Feb-21 18:33N 53°44' W 000°16'0 0.1
2017-Feb-21 17:30N 53°45' W 000°16'0 0.0
2017-Feb-21 16:32N 53°45' W 000°16'0 0.0
2017-Feb-21 15:32N 53°45' W 000°16'0 0.0
2017-Feb-21 14:28N 53°45' W 000°16'0 0.0
2017-Feb-21 13:31N 53°45' W 000°16'0 0.0
2017-Feb-21 12:33N 53°45' W 000°16'0 0.0
2017-Feb-21 11:33N 53°45' W 000°16'0 0.0
2017-Feb-21 10:33N 53°45' W 000°16'0 0.0
2017-Feb-21 09:32N 53°45' W 000°16'0 0.0
2017-Feb-21 08:32N 53°45' W 000°16'0 0.3
2017-Feb-21 07:33N 53°44' W 000°17'1010.4
2017-Feb-21 06:33N 53°37' W 000°05'1413.4
2017-Feb-21 05:33N 53°32' E 000°17'3413.5
2017-Feb-21 03:03N 53°15' E 001°05'714.0
2017-Feb-21 02:33N 53°10' E 001°13'1414.0
2017-Feb-21 01:33N 53°00' E 001°29'1514.8
2017-Feb-21 00:33N 52°49' E 001°46'7416.7
2017-Feb-20 20:09N 51°44' E 002°43'1016.1
2017-Feb-20 19:33N 51°35' E 002°47'1515.2
2017-Feb-20 18:33N 51°24' E 003°04'6 5.7
2017-Feb-20 17:31N 51°20' E 003°11'0 0.0
2017-Feb-20 16:33N 51°20' E 003°11'0 0.0
2017-Feb-20 15:33N 51°20' E 003°11'0 0.0
2017-Feb-20 14:33N 51°20' E 003°11'0 0.0
2017-Feb-20 13:32N 51°20' E 003°11'0 0.0
2017-Feb-20 12:32N 51°20' E 003°11'0 0.0
2017-Feb-20 11:31N 51°20' E 003°11'0 0.0
2017-Feb-20 10:31N 51°20' E 003°11'0 0.0
2017-Feb-20 09:33N 51°20' E 003°11'0 0.0
2017-Feb-20 08:33N 51°20' E 003°11'3 2.7
2017-Feb-20 07:33N 51°23' E 003°10'1313.3
2017-Feb-20 06:34N 51°31' E 002°53'4615.3
2017-Feb-20 03:33N 52°13' E 002°22'3316.5
2017-Feb-20 01:33N 52°42' E 001°57'1616.6
2017-Feb-20 00:33N 52°53' E 001°36'1616.3
2017-Feb-19 23:33N 53°01' E 001°13'4515.1
2017-Feb-19 20:33N 53°31' E 000°16'1514.7
2017-Feb-19 19:33N 53°37' W 000°06'10 9.6
2017-Feb-19 18:33N 53°44' W 000°16'0 0.1
2017-Feb-19 17:34N 53°45' W 000°16'0 0.0
2017-Feb-19 16:33N 53°45' W 000°16'0 0.0
2017-Feb-19 15:33N 53°45' W 000°16'0 0.0
2017-Feb-19 14:20N 53°45' W 000°16'0 0.0
2017-Feb-19 13:20N 53°45' W 000°16'0 0.0
2017-Feb-19 12:25N 53°45' W 000°16'0 0.0
2017-Feb-19 11:31N 53°45' W 000°16'0 0.0
2017-Feb-19 10:30N 53°45' W 000°16'0 0.0
2017-Feb-19 09:21N 53°45' W 000°16'0 0.1
2017-Feb-19 08:33N 53°44' W 000°16'8 7.7
2017-Feb-19 07:33N 53°38' W 000°09'1414.0
2017-Feb-19 06:34N 53°33' E 000°13'3812.6
2017-Feb-19 03:30N 53°06' E 000°58'1313.5
2017-Feb-19 02:33N 52°60' E 001°17'1312.9
2017-Feb-19 01:33N 52°53' E 001°35'1313.3
2017-Feb-19 00:33N 52°47' E 001°55'3014.0
2017-Feb-18 22:25N 52°20' E 002°17'1515.8
2017-Feb-18 21:29N 52°07' E 002°27'1716.6
2017-Feb-18 20:27N 51°51' E 002°38'1516.4
2017-Feb-18 19:33N 51°37' E 002°45'1615.6
2017-Feb-18 18:34N 51°25' E 003°01'8 8.2
2017-Feb-18 17:33N 51°20' E 003°11'0 0.0
2017-Feb-18 16:33N 51°20' E 003°11'0 0.0
2017-Feb-18 15:33N 51°20' E 003°11'0 0.0
2017-Feb-18 14:33N 51°20' E 003°11'0 0.0
2017-Feb-18 13:33N 51°20' E 003°11'0 0.0
2017-Feb-18 12:33N 51°20' E 003°11'0 0.0
2017-Feb-18 11:33N 51°20' E 003°11'0 0.0
2017-Feb-18 10:33N 51°20' E 003°11'0 0.0
2017-Feb-18 09:33N 51°20' E 003°11'0 0.0
2017-Feb-18 08:33N 51°20' E 003°11'8 7.6
2017-Feb-18 07:33N 51°25' E 003°02'1514.6
2017-Feb-18 06:33N 51°36' E 002°46'1613.9
2017-Feb-18 05:25N 51°50' E 002°36'1314.9
2017-Feb-18 04:33N 52°03' E 002°31'1615.3
2017-Feb-18 03:32N 52°17' E 002°20'1615.8
2017-Feb-18 02:33N 52°30' E 002°07'1616.1
2017-Feb-18 01:33N 52°44' E 001°54'1716.9
2017-Feb-18 00:33N 52°54' E 001°32'1716.5
2017-Feb-17 23:33N 53°02' E 001°07'3115.6
2017-Feb-17 21:34N 53°23' E 000°30'1514.7
2017-Feb-17 20:33N 53°32' E 000°10'1413.8
2017-Feb-17 19:33N 53°39' W 000°10'7 6.7
2017-Feb-17 18:34N 53°44' W 000°16'0 0.1
2017-Feb-17 17:34N 53°45' W 000°16'0 0.0
2017-Feb-17 16:33N 53°45' W 000°16'0 0.0
2017-Feb-17 15:33N 53°45' W 000°16'0 0.0
2017-Feb-17 14:26N 53°45' W 000°16'0 0.0
2017-Feb-17 13:32N 53°45' W 000°16'0 0.0
2017-Feb-17 12:25N 53°45' W 000°16'0 0.0
2017-Feb-17 11:31N 53°45' W 000°16'0 0.0
2017-Feb-17 10:30N 53°45' W 000°16'0 0.0
2017-Feb-17 09:33N 53°45' W 000°16'0 0.0
2017-Feb-17 08:33N 53°45' W 000°16'0 0.1
2017-Feb-17 07:33N 53°44' W 000°16'10 9.6
2017-Feb-17 06:34N 53°37' W 000°06'1616.0
2017-Feb-17 05:33N 53°31' E 000°19'3316.5
2017-Feb-17 03:33N 53°07' E 000°58'1616.2
2017-Feb-17 02:33N 52°59' E 001°21'1515.3
2017-Feb-17 01:33N 52°52' E 001°43'1514.1
2017-Feb-17 00:28N 52°42' E 002°02'4314.6
2017-Feb-16 21:33N 52°03' E 002°31'1616.0
2017-Feb-16 20:34N 51°49' E 002°43'1616.2
2017-Feb-16 19:33N 51°33' E 002°50'1515.3
2017-Feb-16 18:34N 51°24' E 003°09'4 3.7
2017-Feb-16 17:33N 51°20' E 003°11'0 0.0
2017-Feb-16 16:33N 51°20' E 003°11'0 0.0
2017-Feb-16 15:33N 51°20' E 003°11'0 0.0
2017-Feb-16 14:33N 51°20' E 003°11'0 0.0
2017-Feb-16 13:33N 51°20' E 003°11'0 0.0
2017-Feb-16 12:33N 51°20' E 003°11'0 0.0
2017-Feb-16 11:33N 51°20' E 003°11'0 0.0
2017-Feb-16 10:33N 51°20' E 003°11'0 0.0
2017-Feb-16 09:33N 51°20' E 003°11'0 0.0
2017-Feb-16 08:33N 51°20' E 003°11'1 1.5
2017-Feb-16 07:34N 51°22' E 003°11'1514.7
2017-Feb-16 06:34N 51°31' E 002°53'1514.0
2017-Feb-16 05:31N 51°44' E 002°42'2814.3
2017-Feb-16 03:33N 52°10' E 002°25'3115.5
2017-Feb-16 01:32N 52°38' E 002°01'1616.3
2017-Feb-16 00:33N 52°49' E 001°43'1616.5
2017-Feb-15 23:34N 52°58' E 001°21'5117.0
2017-Feb-15 20:33N 53°31' E 000°16'1414.5
2017-Feb-15 19:33N 53°37' W 000°06'9 9.3
2017-Feb-15 18:33N 53°44' W 000°16'0 0.1
2017-Feb-15 17:33N 53°45' W 000°16'0 0.0
2017-Feb-15 16:33N 53°45' W 000°16'0 0.0
2017-Feb-15 15:34N 53°45' W 000°16'0 0.0
2017-Feb-15 14:34N 53°45' W 000°16'0 0.0
2017-Feb-15 13:34N 53°45' W 000°16'0 0.0
2017-Feb-15 12:33N 53°45' W 000°16'0 0.0
2017-Feb-15 11:33N 53°45' W 000°16'0 0.0
2017-Feb-15 10:34N 53°45' W 000°16'0 0.0
2017-Feb-15 09:34N 53°45' W 000°16'0 0.0
2017-Feb-15 08:33N 53°45' W 000°16'0 0.3
2017-Feb-15 07:33N 53°44' W 000°17'1615.8
2017-Feb-15 06:33N 53°35' E 000°04'4213.9
2017-Feb-15 03:33N 53°16' E 001°07'1616.6
2017-Feb-15 02:34N 53°04' E 001°25'1716.6
2017-Feb-15 01:34N 52°52' E 001°44'1514.6
2017-Feb-15 00:33N 52°41' E 002°01'7214.4
2017-Feb-14 19:33N 51°35' E 002°48'1615.7
2017-Feb-14 18:34N 51°24' E 003°06'5 4.9
2017-Feb-14 17:31N 51°20' E 003°11'0 0.0
2017-Feb-14 16:33N 51°20' E 003°11'0 0.0
2017-Feb-14 15:33N 51°20' E 003°11'0 0.0
2017-Feb-14 14:32N 51°20' E 003°11'0 0.0
2017-Feb-14 13:32N 51°20' E 003°11'0 0.0
2017-Feb-14 12:32N 51°20' E 003°11'0 0.0
2017-Feb-14 11:31N 51°20' E 003°11'0 0.0
2017-Feb-14 10:28N 51°20' E 003°11'0 0.0
2017-Feb-14 09:33N 51°20' E 003°11'0 0.0
2017-Feb-14 08:33N 51°20' E 003°11'6 5.7
2017-Feb-14 07:33N 51°24' E 003°05'1615.7
2017-Feb-14 06:33N 51°35' E 002°47'3815.5
2017-Feb-14 04:06N 52°11' E 002°23'915.0
2017-Feb-14 03:29N 52°19' E 002°16'2915.0
2017-Feb-14 01:33N 52°44' E 001°55'1615.7
2017-Feb-14 00:33N 52°54' E 001°34'1615.8
2017-Feb-13 23:33N 53°01' E 001°10'4715.7
2017-Feb-13 20:33N 53°33' E 000°12'1312.5
2017-Feb-13 19:34N 53°38' W 000°07'9 8.8
2017-Feb-13 18:33N 53°44' W 000°16'0 0.1
2017-Feb-13 17:29N 53°45' W 000°16'0 0.0
2017-Feb-13 16:32N 53°45' W 000°16'0 0.0
2017-Feb-13 15:32N 53°45' W 000°16'0 0.0
2017-Feb-13 14:31N 53°45' W 000°16'0 0.0
2017-Feb-13 13:28N 53°45' W 000°16'0 0.0
2017-Feb-13 12:33N 53°45' W 000°16'0 0.0
2017-Feb-13 11:27N 53°45' W 000°16'0 0.0
2017-Feb-13 10:32N 53°45' W 000°16'0 0.0
2017-Feb-13 09:32N 53°45' W 000°16'0 0.0
2017-Feb-13 08:33N 53°45' W 000°16'0 0.4
2017-Feb-13 07:33N 53°44' W 000°16'1615.9
2017-Feb-13 06:33N 53°34' E 000°05'4314.3
2017-Feb-13 03:34N 53°15' E 001°08'1616.3
2017-Feb-13 02:34N 53°02' E 001°27'  

Dump ship's entire track history